Oakdale, Louisiana
Current Conditions -  °F | °C
As of 6:35 PM on Saturday 20 Dec 2014 (Local Time) from KACP Reporting Station
Clear Clear  
Wind Chill: 48°   Ceiling: Unl
Heat Index: 48°   Visibility: 10mi
Dew Point: 45°   Wind: 0mph
Humidity: 90%   Direction: NA
Pressure: 30.16"   Gusts: NA
Location:  30.82°N, 92.66°W
Report Text: KACP 210035Z AUTO 00000KT 10SM CLR 09/07 A3016 RMK AO2 T00870071
Loading
Personal Weather Stations






























Interactive Weather Map New forecast layout! Learn more

10-Day Weather Forecast

Advertisements
Track Severe Weather on mobile